Time;durP1;ratioP1;P1;durP2;ratioP2;P2;SDS_P1;SDS_P2;PMS_P1;PMS_P2;Temp;Humidity;BMP_temperature;BMP_pressure;BME280_temperature;BME280_humidity;BME280_pressure;Samples;Min_cycle;Max_cycle;Signal;HPM_P1;HPM_P2
2022/07/13 00:01:26;;;;;;;3.45;1.88;;;;;;;;;;5132947;27;20027;-64
2022/07/13 00:03:52;;;;;;;6.28;1.60;;;;;;;;;;5133020;27;20034;-60
2022/07/13 00:06:18;;;;;;;5.22;1.60;;;;;;;;;;5133093;27;20027;-60
2022/07/13 00:08:45;;;;;;;4.07;1.70;;;;;;;;;;5132610;27;20042;-61
2022/07/13 00:11:11;;;;;;;7.45;1.83;;;;;;;;;;5132691;27;20503;-74
2022/07/13 00:13:37;;;;;;;6.63;1.70;;;;;;;;;;5132676;27;20534;-59
2022/07/13 00:16:04;;;;;;;5.75;1.50;;;;;;;;;;5113989;27;20407;-69
2022/07/13 00:18:30;;;;;;;5.45;1.60;;;;;;;;;;5132188;27;20372;-60
2022/07/13 00:20:57;;;;;;;4.07;1.70;;;;;;;;;;5132423;27;20084;-60
2022/07/13 00:23:23;;;;;;;4.88;1.70;;;;;;;;;;5132409;27;20027;-72
2022/07/13 00:25:49;;;;;;;2.22;1.30;;;;;;;;;;5132281;27;20024;-60
2022/07/13 00:28:15;;;;;;;5.80;1.70;;;;;;;;;;5132143;27;20444;-70
2022/07/13 00:30:41;;;;;;;6.18;1.83;;;;;;;;;;5132263;27;20478;-67
2022/07/13 00:33:07;;;;;;;3.33;1.40;;;;;;;;;;5132192;27;20027;-75
2022/07/13 00:35:33;;;;;;;5.57;1.83;;;;;;;;;;5132372;27;20080;-60
2022/07/13 00:38:00;;;;;;;4.07;1.70;;;;;;;;;;5113173;28;20059;-60
2022/07/13 00:40:26;;;;;;;3.40;1.67;;;;;;;;;;5132462;27;20033;-60
2022/07/13 00:42:52;;;;;;;3.50;1.60;;;;;;;;;;5132324;27;20068;-60
2022/07/13 00:45:18;;;;;;;4.88;1.48;;;;;;;;;;5132413;27;20031;-60
2022/07/13 00:47:45;;;;;;;6.75;2.08;;;;;;;;;;5132391;27;20034;-59
2022/07/13 00:50:11;;;;;;;4.10;1.73;;;;;;;;;;5131942;28;20108;-58
2022/07/13 00:52:38;;;;;;;6.45;1.75;;;;;;;;;;5131873;28;20022;-62
2022/07/13 00:55:06;;;;;;;7.28;1.92;;;;;;;;;;5132114;28;20027;-60
2022/07/13 00:57:36;;;;;;;5.05;1.90;;;;;;;;;;5132013;28;20023;-67
2022/07/13 01:00:08;;;;;;;5.10;1.67;;;;;;;;;;5132048;28;20029;-66
2022/07/13 01:02:35;;;;;;;5.97;1.60;;;;;;;;;;5132248;28;20023;-65
2022/07/13 01:05:02;;;;;;;3.15;1.63;;;;;;;;;;5132234;28;20490;-59
2022/07/13 01:07:28;;;;;;;4.82;1.67;;;;;;;;;;5132259;28;20059;-59
2022/07/13 01:09:54;;;;;;;5.45;1.50;;;;;;;;;;5131770;27;20042;-61
2022/07/13 01:12:20;;;;;;;4.00;1.90;;;;;;;;;;5136314;27;20016;-58
2022/07/13 01:14:46;;;;;;;6.00;1.73;;;;;;;;;;5136402;27;20031;-58
2022/07/13 01:17:12;;;;;;;8.35;1.90;;;;;;;;;;5136020;27;20471;-74
2022/07/13 01:19:39;;;;;;;4.22;1.90;;;;;;;;;;5136069;27;20109;-58
2022/07/13 01:22:06;;;;;;;4.18;1.77;;;;;;;;;;5135940;27;20062;-59
2022/07/13 01:24:33;;;;;;;3.60;1.60;;;;;;;;;;5136241;27;20023;-59
2022/07/13 01:27:00;;;;;;;4.97;1.83;;;;;;;;;;5135968;27;20054;-70
2022/07/13 01:29:26;;;;;;;3.90;1.95;;;;;;;;;;5136019;27;20031;-65
2022/07/13 01:31:58;;;;;;;4.80;1.70;;;;;;;;;;5135545;27;20019;-72
2022/07/13 01:34:24;;;;;;;5.05;1.90;;;;;;;;;;5135845;27;20039;-72
2022/07/13 01:36:50;;;;;;;3.42;1.90;;;;;;;;;;5135913;27;20034;-68
2022/07/13 01:39:16;;;;;;;5.80;1.95;;;;;;;;;;5135759;27;20046;-59
2022/07/13 01:41:42;;;;;;;5.13;1.80;;;;;;;;;;5135274;27;20023;-74
2022/07/13 01:44:08;;;;;;;3.72;1.88;;;;;;;;;;5135634;27;20106;-61
2022/07/13 01:46:34;;;;;;;4.65;1.95;;;;;;;;;;5135287;27;20023;-74
2022/07/13 01:49:00;;;;;;;4.97;1.95;;;;;;;;;;5135159;27;20140;-61
2022/07/13 01:51:26;;;;;;;4.35;1.95;;;;;;;;;;5135329;27;20144;-61
2022/07/13 01:53:52;;;;;;;5.75;1.75;;;;;;;;;;5135033;27;20026;-71
2022/07/13 01:56:18;;;;;;;6.97;1.85;;;;;;;;;;5135014;27;20035;-70
2022/07/13 01:58:44;;;;;;;5.07;2.00;;;;;;;;;;5134843;27;20023;-58
2022/07/13 02:01:10;;;;;;;7.80;1.70;;;;;;;;;;5135481;27;20024;-60
2022/07/13 02:03:36;;;;;;;5.60;2.05;;;;;;;;;;5136947;27;20465;-59
2022/07/13 02:06:05;;;;;;;3.85;2.03;;;;;;;;;;5135974;27;20019;-59
2022/07/13 02:08:31;;;;;;;5.78;1.90;;;;;;;;;;5134849;27;20090;-61
2022/07/13 02:10:57;;;;;;;4.53;1.92;;;;;;;;;;5135321;27;20027;-70
2022/07/13 02:13:23;;;;;;;8.25;2.05;;;;;;;;;;5134979;27;20047;-63
2022/07/13 02:15:49;;;;;;;5.00;1.75;;;;;;;;;;5135186;27;20084;-60
2022/07/13 02:18:16;;;;;;;6.05;2.20;;;;;;;;;;5135040;27;20035;-60
2022/07/13 02:20:42;;;;;;;5.65;2.05;;;;;;;;;;5134696;27;20058;-60
2022/07/13 02:23:08;;;;;;;5.32;2.10;;;;;;;;;;5134563;27;20015;-59
2022/07/13 02:25:34;;;;;;;6.40;1.98;;;;;;;;;;5134823;27;20015;-59
2022/07/13 02:28:00;;;;;;;3.65;1.80;;;;;;;;;;5134441;27;20461;-59
2022/07/13 02:30:26;;;;;;;6.00;2.20;;;;;;;;;;5134962;27;20039;-60
2022/07/13 02:32:52;;;;;;;5.88;1.90;;;;;;;;;;5134598;27;20019;-59
2022/07/13 02:35:18;;;;;;;4.47;2.28;;;;;;;;;;5134795;27;20106;-65
2022/07/13 02:37:44;;;;;;;7.60;1.83;;;;;;;;;;5134652;27;20019;-59
2022/07/13 02:40:12;;;;;;;4.93;2.17;;;;;;;;;;5134505;27;20023;-59
2022/07/13 02:42:38;;;;;;;5.32;2.25;;;;;;;;;;5134418;27;20055;-58
2022/07/13 02:45:05;;;;;;;7.15;2.13;;;;;;;;;;5134446;27;20027;-74
2022/07/13 02:47:31;;;;;;;5.25;2.30;;;;;;;;;;5134056;27;20378;-60
2022/07/13 02:49:57;;;;;;;4.05;2.15;;;;;;;;;;5134216;27;20051;-60
2022/07/13 02:52:23;;;;;;;7.10;2.17;;;;;;;;;;5134360;27;20030;-72
2022/07/13 02:54:49;;;;;;;5.00;2.15;;;;;;;;;;5134102;27;20031;-61
2022/07/13 02:57:16;;;;;;;6.07;2.55;;;;;;;;;;5134170;27;20031;-59
2022/07/13 02:59:42;;;;;;;5.45;2.30;;;;;;;;;;5134159;27;20026;-58
2022/07/13 03:02:08;;;;;;;4.22;1.88;;;;;;;;;;5133960;27;20038;-59
2022/07/13 03:04:35;;;;;;;7.13;2.20;;;;;;;;;;5133964;27;20054;-58
2022/07/13 03:07:02;;;;;;;5.70;2.38;;;;;;;;;;5134354;27;20023;-65
2022/07/13 03:09:28;;;;;;;7.68;2.13;;;;;;;;;;5133960;27;20511;-60
2022/07/13 03:11:54;;;;;;;4.53;2.13;;;;;;;;;;5133800;27;20104;-60
2022/07/13 03:14:20;;;;;;;6.85;2.30;;;;;;;;;;5133865;27;20521;-60
2022/07/13 03:16:46;;;;;;;8.32;2.40;;;;;;;;;;5133904;27;20111;-60
2022/07/13 03:19:13;;;;;;;4.97;2.38;;;;;;;;;;5133786;27;20031;-74
2022/07/13 03:21:39;;;;;;;4.47;2.10;;;;;;;;;;5133322;27;20027;-58
2022/07/13 03:24:06;;;;;;;4.40;2.00;;;;;;;;;;5133724;27;20069;-59
2022/07/13 03:26:32;;;;;;;5.60;2.60;;;;;;;;;;5133604;27;20027;-63
2022/07/13 03:28:58;;;;;;;4.95;2.38;;;;;;;;;;5114583;27;20490;-72
2022/07/13 03:31:24;;;;;;;7.63;2.88;;;;;;;;;;5133363;27;20383;-61
2022/07/13 03:33:50;;;;;;;5.03;2.30;;;;;;;;;;5132578;27;20083;-59
2022/07/13 03:36:16;;;;;;;5.47;2.20;;;;;;;;;;5133386;27;20023;-73
2022/07/13 03:38:42;;;;;;;5.15;2.08;;;;;;;;;;5133626;27;20031;-74
2022/07/13 03:41:08;;;;;;;4.50;2.30;;;;;;;;;;5133393;27;20035;-68
2022/07/13 03:43:34;;;;;;;8.38;2.28;;;;;;;;;;5133098;27;20381;-70
2022/07/13 03:46:00;;;;;;;4.18;1.90;;;;;;;;;;5133083;27;20492;-64
2022/07/13 03:48:26;;;;;;;4.68;1.92;;;;;;;;;;5132722;27;20384;-73
2022/07/13 03:50:52;;;;;;;7.90;1.85;;;;;;;;;;5133342;27;20041;-72
2022/07/13 03:53:19;;;;;;;4.63;1.83;;;;;;;;;;5132744;27;20467;-58
2022/07/13 03:55:45;;;;;;;4.18;1.80;;;;;;;;;;5133116;27;20054;-60
2022/07/13 03:58:11;;;;;;;4.57;2.33;;;;;;;;;;5132641;27;20483;-58
2022/07/13 04:00:38;;;;;;;6.38;2.17;;;;;;;;;;5133023;27;20081;-58
2022/07/13 04:03:04;;;;;;;4.95;1.83;;;;;;;;;;5133336;27;20031;-59
2022/07/13 04:05:30;;;;;;;2.78;1.70;;;;;;;;;;5132858;27;20023;-73
2022/07/13 04:07:56;;;;;;;3.42;1.90;;;;;;;;;;5132910;27;20386;-73
2022/07/13 04:10:23;;;;;;;4.60;1.83;;;;;;;;;;5132788;27;20037;-61
2022/07/13 04:12:49;;;;;;;3.95;1.80;;;;;;;;;;5132865;27;20059;-59
2022/07/13 04:15:16;;;;;;;5.72;2.10;;;;;;;;;;5132829;27;20442;-59
2022/07/13 04:17:43;;;;;;;4.20;1.83;;;;;;;;;;5132645;27;20072;-59
2022/07/13 04:20:10;;;;;;;4.70;1.80;;;;;;;;;;5132834;27;20035;-60
2022/07/13 04:22:36;;;;;;;4.70;1.50;;;;;;;;;;5132807;27;20113;-63
2022/07/13 04:25:02;;;;;;;7.68;1.80;;;;;;;;;;5132567;27;20378;-60
2022/07/13 04:27:28;;;;;;;2.72;1.60;;;;;;;;;;5132327;27;20509;-59
2022/07/13 04:29:54;;;;;;;3.90;1.60;;;;;;;;;;5132778;27;20390;-59
2022/07/13 04:32:21;;;;;;;9.10;1.92;;;;;;;;;;5132158;27;20137;-60
2022/07/13 04:34:47;;;;;;;5.38;1.83;;;;;;;;;;5132098;27;20023;-62
2022/07/13 04:37:13;;;;;;;6.57;1.67;;;;;;;;;;5132641;27;20038;-59
2022/07/13 04:39:42;;;;;;;3.35;1.80;;;;;;;;;;5132325;27;20030;-61
2022/07/13 04:42:08;;;;;;;3.55;1.67;;;;;;;;;;5132026;27;20031;-62
2022/07/13 04:44:34;;;;;;;4.20;1.70;;;;;;;;;;5131987;27;20027;-62
2022/07/13 04:47:00;;;;;;;3.80;1.63;;;;;;;;;;5131904;27;20038;-59
2022/07/13 04:49:26;;;;;;;3.70;1.60;;;;;;;;;;5131896;27;20058;-72
2022/07/13 04:51:52;;;;;;;3.72;1.65;;;;;;;;;;5132096;28;20027;-59
2022/07/13 04:54:21;;;;;;;3.42;1.70;;;;;;;;;;5131860;28;20104;-60
2022/07/13 04:56:48;;;;;;;3.63;1.60;;;;;;;;;;5132118;28;20065;-60
2022/07/13 04:59:15;;;;;;;5.32;1.63;;;;;;;;;;5132062;28;20050;-68
2022/07/13 05:01:41;;;;;;;4.82;1.90;;;;;;;;;;5132144;28;20027;-60
2022/07/13 05:04:07;;;;;;;3.80;1.85;;;;;;;;;;5129224;28;20020;-59
2022/07/13 05:06:33;;;;;;;4.38;1.83;;;;;;;;;;5130764;28;20382;-60
2022/07/13 05:09:00;;;;;;;4.85;1.50;;;;;;;;;;5130788;28;20020;-59
2022/07/13 05:11:26;;;;;;;5.28;1.80;;;;;;;;;;5130856;28;20030;-60
2022/07/13 05:13:52;;;;;;;6.50;1.60;;;;;;;;;;5130698;28;20039;-60
2022/07/13 05:16:19;;;;;;;2.80;1.38;;;;;;;;;;5130605;28;20403;-64
2022/07/13 05:18:45;;;;;;;5.28;1.65;;;;;;;;;;5111864;28;20031;-72
2022/07/13 05:21:11;;;;;;;4.60;1.70;;;;;;;;;;5130238;28;20042;-69
2022/07/13 05:23:38;;;;;;;5.53;1.60;;;;;;;;;;5130471;28;20015;-71
2022/07/13 05:26:04;;;;;;;3.50;1.40;;;;;;;;;;5130975;28;20035;-73
2022/07/13 05:28:31;;;;;;;4.07;1.70;;;;;;;;;;5131605;28;20481;-66
2022/07/13 05:30:57;;;;;;;2.80;1.60;;;;;;;;;;5131795;28;20042;-69
2022/07/13 05:33:23;;;;;;;3.15;1.63;;;;;;;;;;5131956;28;20126;-58
2022/07/13 05:35:49;;;;;;;5.28;2.00;;;;;;;;;;5131871;28;20035;-64
2022/07/13 05:38:16;;;;;;;4.57;2.17;;;;;;;;;;5131855;28;20087;-72
2022/07/13 05:40:42;;;;;;;3.45;1.40;;;;;;;;;;5130405;28;20505;-61
2022/07/13 05:43:08;;;;;;;3.17;1.70;;;;;;;;;;5130451;28;20015;-61
2022/07/13 05:45:34;;;;;;;4.18;1.55;;;;;;;;;;5129601;28;20470;-61
2022/07/13 05:48:00;;;;;;;2.28;1.33;;;;;;;;;;5130229;28;20441;-62
2022/07/13 05:50:26;;;;;;;3.75;1.40;;;;;;;;;;5131362;28;20517;-64
2022/07/13 05:52:52;;;;;;;6.88;1.60;;;;;;;;;;5112551;28;20039;-63
2022/07/13 05:55:18;;;;;;;4.63;1.50;;;;;;;;;;5129474;28;20410;-62
2022/07/13 05:57:44;;;;;;;5.05;1.55;;;;;;;;;;5134000;27;20023;-62
2022/07/13 06:00:11;;;;;;;5.20;1.80;;;;;;;;;;5134939;27;20024;-62
2022/07/13 06:02:41;;;;;;;4.65;1.77;;;;;;;;;;5134966;27;20090;-62
2022/07/13 06:05:07;;;;;;;4.30;1.60;;;;;;;;;;5134767;27;20304;-64
2022/07/13 06:07:33;;;;;;;3.72;1.65;;;;;;;;;;5134336;27;20030;-62
2022/07/13 06:10:01;;;;;;;3.33;1.50;;;;;;;;;;5133545;27;20035;-66
2022/07/13 06:12:27;;;;;;;4.30;1.60;;;;;;;;;;5133113;27;20094;-62
2022/07/13 06:14:54;;;;;;;4.43;1.48;;;;;;;;;;5132982;27;20112;-65
2022/07/13 06:17:20;;;;;;;3.05;1.40;;;;;;;;;;5133376;27;20412;-61
2022/07/13 06:19:46;;;;;;;4.57;1.50;;;;;;;;;;5133231;27;20027;-63
2022/07/13 06:22:12;;;;;;;5.50;1.80;;;;;;;;;;5133003;27;20019;-66
2022/07/13 06:24:38;;;;;;;3.15;1.70;;;;;;;;;;5114365;27;20429;-61
2022/07/13 06:27:04;;;;;;;4.80;1.50;;;;;;;;;;5134129;27;20371;-66
2022/07/13 06:29:30;;;;;;;3.15;1.65;;;;;;;;;;5133872;27;20088;-61
2022/07/13 06:31:56;;;;;;;4.43;1.60;;;;;;;;;;5133153;27;20034;-63
2022/07/13 06:34:22;;;;;;;5.68;1.63;;;;;;;;;;5134103;27;20053;-61
2022/07/13 06:36:48;;;;;;;5.35;1.80;;;;;;;;;;5133164;27;20432;-60
2022/07/13 06:39:14;;;;;;;4.22;2.20;;;;;;;;;;5132138;27;20094;-61
2022/07/13 06:41:41;;;;;;;4.78;1.88;;;;;;;;;;5133453;27;20023;-62
2022/07/13 06:44:07;;;;;;;3.33;1.65;;;;;;;;;;5115400;27;20042;-62
2022/07/13 06:46:33;;;;;;;6.63;1.95;;;;;;;;;;5134236;27;20026;-62
2022/07/13 06:48:59;;;;;;;5.55;1.27;;;;;;;;;;5133624;27;20047;-62
2022/07/13 06:51:25;;;;;;;5.45;1.45;;;;;;;;;;5132826;27;20031;-62
2022/07/13 06:53:51;;;;;;;6.00;2.03;;;;;;;;;;5134107;27;20023;-61
2022/07/13 06:56:17;;;;;;;6.40;2.03;;;;;;;;;;5133953;27;20023;-62
2022/07/13 06:58:44;;;;;;;6.90;2.15;;;;;;;;;;5132603;27;20383;-61
2022/07/13 07:01:10;;;;;;;5.95;1.70;;;;;;;;;;5133106;27;20382;-61
2022/07/13 07:03:36;;;;;;;5.18;1.70;;;;;;;;;;5134006;27;20046;-62
2022/07/13 07:06:02;;;;;;;8.15;1.80;;;;;;;;;;5133770;27;20027;-61
2022/07/13 07:08:28;;;;;;;5.60;1.90;;;;;;;;;;5131246;27;20020;-60
2022/07/13 07:10:54;;;;;;;4.07;1.60;;;;;;;;;;5131845;27;20031;-61
2022/07/13 07:13:20;;;;;;;6.32;1.70;;;;;;;;;;5131939;27;20027;-60
2022/07/13 07:15:46;;;;;;;5.63;1.90;;;;;;;;;;5131348;27;20068;-64
2022/07/13 07:18:12;;;;;;;4.85;2.20;;;;;;;;;;5131932;27;20023;-61
2022/07/13 07:20:39;;;;;;;4.38;1.70;;;;;;;;;;5133383;27;20031;-66
2022/07/13 07:23:05;;;;;;;6.85;1.88;;;;;;;;;;5131342;27;20015;-61
2022/07/13 07:25:31;;;;;;;6.55;1.73;;;;;;;;;;5131806;27;20034;-62
2022/07/13 07:27:57;;;;;;;5.28;1.80;;;;;;;;;;5131260;27;20055;-60
2022/07/13 07:30:23;;;;;;;4.32;1.48;;;;;;;;;;5132010;27;20035;-62
2022/07/13 07:32:49;;;;;;;5.10;2.50;;;;;;;;;;5132054;27;20038;-62
2022/07/13 07:35:15;;;;;;;7.38;2.25;;;;;;;;;;5133091;27;20386;-60
2022/07/13 07:37:41;;;;;;;8.10;4.40;;;;;;;;;;5133491;27;20030;-64
2022/07/13 07:40:08;;;;;;;5.13;1.80;;;;;;;;;;5133374;27;20023;-61
2022/07/13 07:42:35;;;;;;;4.35;2.00;;;;;;;;;;5132445;27;20020;-62
2022/07/13 07:45:01;;;;;;;8.40;1.70;;;;;;;;;;5132666;27;20516;-62
2022/07/13 07:47:27;;;;;;;3.97;1.77;;;;;;;;;;5132917;27;20351;-63
2022/07/13 07:49:53;;;;;;;3.78;1.63;;;;;;;;;;5132767;27;20107;-62
2022/07/13 07:52:19;;;;;;;3.75;1.63;;;;;;;;;;5131805;27;20037;-67
2022/07/13 07:54:46;;;;;;;3.78;1.73;;;;;;;;;;5133124;27;20115;-62
2022/07/13 07:57:12;;;;;;;6.20;1.73;;;;;;;;;;5133071;27;20021;-62
2022/07/13 07:59:38;;;;;;;3.70;1.80;;;;;;;;;;5133053;27;20046;-61
2022/07/13 08:02:04;;;;;;;5.22;1.48;;;;;;;;;;5132504;27;20023;-63
2022/07/13 08:04:30;;;;;;;5.80;1.90;;;;;;;;;;5133074;27;20031;-62
2022/07/13 08:06:56;;;;;;;5.55;2.17;;;;;;;;;;5132850;27;20019;-61
2022/07/13 08:09:22;;;;;;;4.13;1.75;;;;;;;;;;5132636;27;20027;-62
2022/07/13 08:11:48;;;;;;;6.25;1.58;;;;;;;;;;5133061;27;20058;-61
2022/07/13 08:14:14;;;;;;;4.13;2.08;;;;;;;;;;5132590;27;20025;-62
2022/07/13 08:16:41;;;;;;;4.55;1.90;;;;;;;;;;5132652;27;20023;-63
2022/07/13 08:19:07;;;;;;;4.53;1.60;;;;;;;;;;5132271;27;20102;-62
2022/07/13 08:21:34;;;;;;;5.20;1.67;;;;;;;;;;5132488;27;20038;-62
2022/07/13 08:24:00;;;;;;;3.60;1.95;;;;;;;;;;5132911;27;20480;-65
2022/07/13 08:26:27;;;;;;;4.05;1.73;;;;;;;;;;5132662;27;20027;-64
2022/07/13 08:28:54;;;;;;;5.72;1.33;;;;;;;;;;5132267;27;20490;-62
2022/07/13 08:31:21;;;;;;;6.40;1.73;;;;;;;;;;5131861;27;20027;-65
2022/07/13 08:39:31;;;;;;;3.80;1.40;;;;;;;;;;5089256;28;20522;-62
2022/07/13 08:42:00;;;;;;;5.53;2.05;;;;;;;;;;5089082;28;20039;-62
2022/07/13 08:44:27;;;;;;;4.13;1.40;;;;;;;;;;5088809;28;20028;-62
2022/07/13 08:46:53;;;;;;;4.32;1.45;;;;;;;;;;5088856;28;20043;-63
2022/07/13 08:49:20;;;;;;;5.30;1.50;;;;;;;;;;5088511;28;20457;-63
2022/07/13 08:51:47;;;;;;;3.65;1.80;;;;;;;;;;5088415;28;20036;-63
2022/07/13 08:54:14;;;;;;;5.00;2.15;;;;;;;;;;5088462;28;20028;-63
2022/07/13 08:56:41;;;;;;;4.28;2.08;;;;;;;;;;5088840;28;20134;-63
2022/07/13 08:59:07;;;;;;;5.05;1.70;;;;;;;;;;5088507;28;20097;-62
2022/07/13 09:01:33;;;;;;;4.47;1.75;;;;;;;;;;5088746;28;20107;-62
2022/07/13 09:04:00;;;;;;;4.30;1.77;;;;;;;;;;5088804;28;20052;-62
2022/07/13 09:06:45;;;;;;;3.03;1.25;;;;;;;;;;5088627;28;20051;-66
2022/07/13 09:09:31;;;;;;;6.07;1.35;;;;;;;;;;5088687;28;20024;-62
2022/07/13 09:12:17;;;;;;;4.45;1.60;;;;;;;;;;5102667;28;20510;-62
2022/07/13 09:14:44;;;;;;;5.97;2.50;;;;;;;;;;5028312;28;20041;-62
2022/07/13 09:17:40;;;;;;;5.28;1.60;;;;;;;;;;5028624;28;20112;-61
2022/07/13 09:20:18;;;;;;;6.28;1.63;;;;;;;;;;4950408;29;20055;-61
2022/07/13 09:22:47;;;;;;;6.43;1.50;;;;;;;;;;4950487;29;20031;-63
2022/07/13 09:25:14;;;;;;;5.05;1.52;;;;;;;;;;4950786;29;20146;-63
2022/07/13 09:27:47;;;;;;;5.68;1.40;;;;;;;;;;4950039;29;20031;-62
2022/07/13 09:30:25;;;;;;;3.33;1.20;;;;;;;;;;4950509;28;20586;-64
2022/07/13 09:32:53;;;;;;;2.45;1.30;;;;;;;;;;4953316;29;20637;-62
2022/07/13 09:35:20;;;;;;;4.70;0.90;;;;;;;;;;4954192;29;20062;-64
2022/07/13 09:37:47;;;;;;;3.05;0.80;;;;;;;;;;4953923;29;20111;-62
2022/07/13 09:40:17;;;;;;;2.65;1.20;;;;;;;;;;4954084;29;20118;-66
2022/07/13 09:42:43;;;;;;;2.53;0.60;;;;;;;;;;4953916;28;20133;-62
2022/07/13 09:47:56;;;;;;;1.85;0.73;;;;;;;;;;4954220;29;20042;-67
2022/07/13 09:50:36;;;;;;;3.42;0.80;;;;;;;;;;4953849;29;20059;-62
2022/07/13 09:53:03;;;;;;;4.63;1.20;;;;;;;;;;5051527;28;20017;-62
2022/07/13 09:55:33;;;;;;;6.22;1.40;;;;;;;;;;5059435;27;20043;-66
2022/07/13 09:58:00;;;;;;;2.10;0.85;;;;;;;;;;5134942;27;20042;-62
2022/07/13 10:00:27;;;;;;;2.30;1.08;;;;;;;;;;5135061;27;20023;-62
2022/07/13 10:02:53;;;;;;;2.38;1.08;;;;;;;;;;5134903;27;20012;-62
2022/07/13 10:05:19;;;;;;;4.20;0.70;;;;;;;;;;5134802;27;20041;-62
2022/07/13 10:07:47;;;;;;;2.65;0.90;;;;;;;;;;5134924;27;20038;-62
2022/07/13 10:10:14;;;;;;;2.03;0.70;;;;;;;;;;5135029;27;20031;-62
2022/07/13 10:12:40;;;;;;;2.53;0.90;;;;;;;;;;5135067;27;20537;-63
2022/07/13 10:15:07;;;;;;;2.50;0.60;;;;;;;;;;5135230;27;20025;-63
2022/07/13 10:17:34;;;;;;;2.00;0.98;;;;;;;;;;5135281;27;20065;-62
2022/07/13 10:20:01;;;;;;;2.67;0.70;;;;;;;;;;5134770;27;20031;-66
2022/07/13 10:22:29;;;;;;;1.05;0.60;;;;;;;;;;5134665;27;20027;-63
2022/07/13 10:24:57;;;;;;;2.53;0.90;;;;;;;;;;5135254;27;20027;-66
2022/07/13 10:27:26;;;;;;;1.15;0.60;;;;;;;;;;5134769;27;20019;-62
2022/07/13 10:29:53;;;;;;;1.55;0.60;;;;;;;;;;5134719;27;20514;-62
2022/07/13 10:32:25;;;;;;;2.85;0.80;;;;;;;;;;5134318;27;20437;-63
2022/07/13 10:34:57;;;;;;;2.13;0.68;;;;;;;;;;5134378;27;20478;-62
2022/07/13 10:37:24;;;;;;;2.38;0.75;;;;;;;;;;5134677;27;20076;-62
2022/07/13 10:40:12;;;;;;;1.80;0.70;;;;;;;;;;5115360;27;20063;-62
2022/07/13 10:42:53;;;;;;;1.20;0.65;;;;;;;;;;5134141;27;20106;-62
2022/07/13 10:45:46;;;;;;;1.27;0.77;;;;;;;;;;5134233;27;20034;-62
2022/07/13 10:48:18;;;;;;;4.30;0.70;;;;;;;;;;5134166;27;20090;-62
2022/07/13 10:50:45;;;;;;;2.65;0.77;;;;;;;;;;5134324;27;20035;-65
2022/07/13 10:53:11;;;;;;;1.65;0.77;;;;;;;;;;5134257;27;20463;-62
2022/07/13 10:55:45;;;;;;;2.78;0.70;;;;;;;;;;5134359;27;20031;-61
2022/07/13 10:58:30;;;;;;;4.30;1.00;;;;;;;;;;5133771;27;20098;-61
2022/07/13 11:00:57;;;;;;;5.65;1.00;;;;;;;;;;5134081;27;20077;-61
2022/07/13 11:03:32;;;;;;;3.72;0.90;;;;;;;;;;5133923;27;20058;-62
2022/07/13 11:06:08;;;;;;;4.43;0.95;;;;;;;;;;5133777;27;20030;-67
2022/07/13 11:08:35;;;;;;;1.45;0.80;;;;;;;;;;5134204;27;20032;-61
2022/07/13 11:11:11;;;;;;;2.13;0.63;;;;;;;;;;5133952;27;20118;-66
2022/07/13 11:13:37;;;;;;;3.00;0.70;;;;;;;;;;5133722;27;20033;-62
2022/07/13 11:16:05;;;;;;;2.65;0.80;;;;;;;;;;5133844;27;20403;-66
2022/07/13 11:18:32;;;;;;;2.10;1.00;;;;;;;;;;5133320;27;20548;-63
2022/07/13 11:20:59;;;;;;;2.90;0.70;;;;;;;;;;5133874;27;20023;-62
2022/07/13 11:26:29;;;;;;;2.35;0.55;;;;;;;;;;5133759;27;20030;-62
2022/07/13 11:29:02;;;;;;;2.67;0.70;;;;;;;;;;5133269;27;20031;-66
2022/07/13 11:31:28;;;;;;;3.53;0.63;;;;;;;;;;5133762;27;20588;-66
2022/07/13 11:33:55;;;;;;;4.32;0.70;;;;;;;;;;5114997;27;20446;-67
2022/07/13 11:36:25;;;;;;;2.28;0.82;;;;;;;;;;5133451;27;20034;-63
2022/07/13 11:38:51;;;;;;;3.13;0.90;;;;;;;;;;5133545;27;20020;-62
2022/07/13 11:41:21;;;;;;;3.40;0.70;;;;;;;;;;5133308;27;20375;-62
2022/07/13 11:43:47;;;;;;;2.95;0.80;;;;;;;;;;5133351;27;20011;-63
2022/07/13 11:46:14;;;;;;;2.78;0.90;;;;;;;;;;5133268;27;20467;-63
2022/07/13 11:48:40;;;;;;;3.80;0.80;;;;;;;;;;5132903;27;20471;-62
2022/07/13 11:51:09;;;;;;;1.48;0.75;;;;;;;;;;5133226;27;20398;-62
2022/07/13 11:53:35;;;;;;;4.38;0.90;;;;;;;;;;5132599;27;20069;-62
2022/07/13 11:56:05;;;;;;;1.58;0.73;;;;;;;;;;5132996;27;20108;-64
2022/07/13 11:58:32;;;;;;;1.42;0.82;;;;;;;;;;5132833;27;20019;-65
2022/07/13 12:01:01;;;;;;;2.92;0.70;;;;;;;;;;5133157;27;20020;-62
2022/07/13 12:03:32;;;;;;;2.72;0.82;;;;;;;;;;5132827;27;20023;-63
2022/07/13 12:06:03;;;;;;;1.95;0.75;;;;;;;;;;5132934;27;20062;-62
2022/07/13 12:08:35;;;;;;;1.55;0.70;;;;;;;;;;5132798;27;20031;-62
2022/07/13 12:11:03;;;;;;;1.60;0.80;;;;;;;;;;5132954;27;20035;-62
2022/07/13 12:13:30;;;;;;;1.40;0.70;;;;;;;;;;5132772;27;20019;-62
2022/07/13 12:15:57;;;;;;;1.88;0.60;;;;;;;;;;5132734;27;20019;-61
2022/07/13 12:18:23;;;;;;;2.35;0.85;;;;;;;;;;5132552;27;20058;-65
2022/07/13 12:20:49;;;;;;;2.90;0.90;;;;;;;;;;5132626;27;20050;-61
2022/07/13 12:23:15;;;;;;;1.98;0.60;;;;;;;;;;5132462;27;20031;-63
2022/07/13 12:25:41;;;;;;;2.55;0.80;;;;;;;;;;5132174;27;20027;-63
2022/07/13 12:28:11;;;;;;;2.15;0.80;;;;;;;;;;5132168;27;20027;-64
2022/07/13 12:30:54;;;;;;;1.95;0.70;;;;;;;;;;5132277;27;20071;-62
2022/07/13 12:33:23;;;;;;;1.17;0.63;;;;;;;;;;5132142;27;20019;-61
2022/07/13 12:36:01;;;;;;;3.75;0.80;;;;;;;;;;5132228;27;20583;-64
2022/07/13 12:38:27;;;;;;;2.85;1.05;;;;;;;;;;5132587;27;20019;-61
2022/07/13 12:40:55;;;;;;;1.58;0.80;;;;;;;;;;5132493;27;20027;-66
2022/07/13 12:43:25;;;;;;;4.22;0.90;;;;;;;;;;5113361;27;20402;-64
2022/07/13 12:45:55;;;;;;;5.43;0.73;;;;;;;;;;5132270;27;20074;-62
2022/07/13 12:48:25;;;;;;;1.90;0.80;;;;;;;;;;5131899;27;20398;-62
2022/07/13 12:50:56;;;;;;;2.10;0.70;;;;;;;;;;5132146;27;20062;-61
2022/07/13 12:53:22;;;;;;;1.67;0.80;;;;;;;;;;5132206;28;20027;-61
2022/07/13 12:55:56;;;;;;;3.05;0.90;;;;;;;;;;5132519;28;20027;-62
2022/07/13 12:58:41;;;;;;;4.65;1.00;;;;;;;;;;5131788;28;20431;-62
2022/07/13 13:01:07;;;;;;;5.63;0.80;;;;;;;;;;5132378;28;20030;-61
2022/07/13 13:03:33;;;;;;;1.17;0.70;;;;;;;;;;5132339;28;20020;-65
2022/07/13 13:05:59;;;;;;;1.80;0.90;;;;;;;;;;5133535;27;20034;-61
2022/07/13 13:08:25;;;;;;;1.92;0.70;;;;;;;;;;5136424;27;20098;-61
2022/07/13 13:10:51;;;;;;;3.88;0.90;;;;;;;;;;5136240;27;20027;-64
2022/07/13 13:13:17;;;;;;;1.08;0.60;;;;;;;;;;5135971;27;20015;-60
2022/07/13 13:15:44;;;;;;;2.45;0.73;;;;;;;;;;5117332;27;20057;-62
2022/07/13 13:18:10;;;;;;;2.95;0.93;;;;;;;;;;5135740;27;20015;-62
2022/07/13 13:20:36;;;;;;;2.60;0.80;;;;;;;;;;5136020;27;20034;-67
2022/07/13 13:23:02;;;;;;;4.68;0.90;;;;;;;;;;5135986;27;20023;-62
2022/07/13 13:25:28;;;;;;;3.17;0.82;;;;;;;;;;5135367;27;20026;-62
2022/07/13 13:27:54;;;;;;;5.18;1.20;;;;;;;;;;5135669;27;20023;-63
2022/07/13 13:33:05;;;;;;;3.35;0.90;;;;;;;;;;5135924;27;20057;-63
2022/07/13 13:35:31;;;;;;;2.58;0.98;;;;;;;;;;5135735;27;20454;-66
2022/07/13 13:37:58;;;;;;;3.60;0.95;;;;;;;;;;5135757;27;20039;-64
2022/07/13 13:40:24;;;;;;;1.15;0.70;;;;;;;;;;5135713;27;20094;-63
2022/07/13 13:42:50;;;;;;;2.42;0.80;;;;;;;;;;5135670;27;20019;-62
2022/07/13 13:45:16;;;;;;;1.88;0.80;;;;;;;;;;5135582;27;20054;-61
2022/07/13 13:47:42;;;;;;;3.40;0.73;;;;;;;;;;5135627;27;20019;-61
2022/07/13 13:50:08;;;;;;;3.03;0.80;;;;;;;;;;5135388;27;20138;-63
2022/07/13 13:52:35;;;;;;;2.65;0.90;;;;;;;;;;5135432;27;20027;-62
2022/07/13 13:55:01;;;;;;;3.75;0.90;;;;;;;;;;5135189;27;20030;-63
2022/07/13 13:57:27;;;;;;;3.22;1.00;;;;;;;;;;5134659;27;20019;-63
2022/07/13 13:59:54;;;;;;;1.75;0.75;;;;;;;;;;5134212;27;20065;-62
2022/07/13 14:02:20;;;;;;;1.73;0.88;;;;;;;;;;5134821;27;20027;-66
2022/07/13 14:04:46;;;;;;;3.80;0.90;;;;;;;;;;5135257;27;20096;-62
2022/07/13 14:07:12;;;;;;;2.63;0.80;;;;;;;;;;5135272;27;20020;-63
2022/07/13 14:09:38;;;;;;;2.00;1.15;;;;;;;;;;5135291;27;20070;-62
2022/07/13 14:12:04;;;;;;;2.20;1.00;;;;;;;;;;5134880;27;20103;-63
2022/07/13 14:14:30;;;;;;;3.85;0.90;;;;;;;;;;5134579;27;20038;-63
2022/07/13 14:16:56;;;;;;;3.00;1.10;;;;;;;;;;5133878;27;20024;-67
2022/07/13 14:19:23;;;;;;;3.63;1.20;;;;;;;;;;5134834;27;20423;-62
2022/07/13 14:21:49;;;;;;;3.65;1.20;;;;;;;;;;5135079;27;20038;-62
2022/07/13 14:24:16;;;;;;;2.22;0.77;;;;;;;;;;5135127;27;20678;-62
2022/07/13 14:26:43;;;;;;;2.55;1.00;;;;;;;;;;5134634;27;20031;-66
2022/07/13 14:29:09;;;;;;;1.83;1.00;;;;;;;;;;5134150;27;20076;-62
2022/07/13 14:31:35;;;;;;;2.80;1.00;;;;;;;;;;5134588;27;20457;-62
2022/07/13 14:34:01;;;;;;;2.30;1.05;;;;;;;;;;5134495;27;20539;-62
2022/07/13 14:36:27;;;;;;;1.92;0.80;;;;;;;;;;5134451;27;20046;-62
2022/07/13 14:38:53;;;;;;;3.00;0.85;;;;;;;;;;5134242;27;20023;-61
2022/07/13 14:41:19;;;;;;;3.50;1.15;;;;;;;;;;5134564;27;20035;-63
2022/07/13 14:43:46;;;;;;;4.28;0.95;;;;;;;;;;5134368;27;20029;-64
2022/07/13 14:46:12;;;;;;;1.27;0.88;;;;;;;;;;5134433;27;20110;-62
2022/07/13 14:48:38;;;;;;;1.92;0.80;;;;;;;;;;5134121;27;20056;-66
2022/07/13 14:51:04;;;;;;;5.22;1.10;;;;;;;;;;5134136;27;20386;-62
2022/07/13 14:53:30;;;;;;;2.63;0.88;;;;;;;;;;5134002;27;20432;-63
2022/07/13 14:55:58;;;;;;;3.05;0.90;;;;;;;;;;5134330;27;20023;-66
2022/07/13 14:58:24;;;;;;;2.05;1.00;;;;;;;;;;5133648;27;20025;-63